sensor_id;sensor_type;location;lat;lon;timestamp;P1;durP1;ratioP1;P2;durP2;ratioP2
12770;SDS011;6449;47.666;9.160;2022-07-22T00:01:35;9.95;;;8.73;;
12770;SDS011;6449;47.666;9.160;2022-07-22T00:06:29;9.23;;;8.38;;
12770;SDS011;6449;47.666;9.160;2022-07-22T00:11:24;10.05;;;9.02;;
12770;SDS011;6449;47.666;9.160;2022-07-22T00:16:18;9.85;;;8.85;;
12770;SDS011;6449;47.666;9.160;2022-07-22T00:21:11;9.82;;;8.77;;
12770;SDS011;6449;47.666;9.160;2022-07-22T00:26:04;9.52;;;8.52;;
12770;SDS011;6449;47.666;9.160;2022-07-22T00:31:00;9.40;;;8.40;;
12770;SDS011;6449;47.666;9.160;2022-07-22T00:35:53;11.52;;;9.13;;
12770;SDS011;6449;47.666;9.160;2022-07-22T00:40:47;9.68;;;8.68;;
12770;SDS011;6449;47.666;9.160;2022-07-22T00:45:40;9.27;;;8.15;;
12770;SDS011;6449;47.666;9.160;2022-07-22T00:50:35;9.20;;;8.23;;
12770;SDS011;6449;47.666;9.160;2022-07-22T00:55:29;9.07;;;8.18;;
12770;SDS011;6449;47.666;9.160;2022-07-22T01:00:25;12.38;;;8.48;;
12770;SDS011;6449;47.666;9.160;2022-07-22T01:05:18;9.65;;;8.65;;
12770;SDS011;6449;47.666;9.160;2022-07-22T01:10:14;9.88;;;8.52;;
12770;SDS011;6449;47.666;9.160;2022-07-22T01:15:07;9.95;;;8.43;;
12770;SDS011;6449;47.666;9.160;2022-07-22T01:20:04;9.63;;;8.60;;
12770;SDS011;6449;47.666;9.160;2022-07-22T01:24:59;9.75;;;8.75;;
12770;SDS011;6449;47.666;9.160;2022-07-22T01:29:52;10.05;;;8.80;;
12770;SDS011;6449;47.666;9.160;2022-07-22T01:34:46;9.07;;;8.15;;
12770;SDS011;6449;47.666;9.160;2022-07-22T01:39:40;9.55;;;8.60;;
12770;SDS011;6449;47.666;9.160;2022-07-22T01:44:34;9.00;;;8.10;;
12770;SDS011;6449;47.666;9.160;2022-07-22T01:49:28;8.57;;;7.78;;
12770;SDS011;6449;47.666;9.160;2022-07-22T01:54:21;8.90;;;8.00;;
12770;SDS011;6449;47.666;9.160;2022-07-22T01:59:16;8.98;;;7.88;;
12770;SDS011;6449;47.666;9.160;2022-07-22T02:04:10;8.65;;;7.85;;
12770;SDS011;6449;47.666;9.160;2022-07-22T02:09:05;9.07;;;7.57;;
12770;SDS011;6449;47.666;9.160;2022-07-22T02:14:00;9.32;;;8.25;;
12770;SDS011;6449;47.666;9.160;2022-07-22T02:18:56;9.95;;;8.20;;
12770;SDS011;6449;47.666;9.160;2022-07-22T02:23:51;8.60;;;7.75;;
12770;SDS011;6449;47.666;9.160;2022-07-22T02:28:45;9.40;;;8.40;;
12770;SDS011;6449;47.666;9.160;2022-07-22T02:33:39;8.60;;;7.80;;
12770;SDS011;6449;47.666;9.160;2022-07-22T02:38:35;8.88;;;7.97;;
12770;SDS011;6449;47.666;9.160;2022-07-22T02:43:29;8.75;;;7.85;;
12770;SDS011;6449;47.666;9.160;2022-07-22T02:48:24;10.13;;;7.55;;
12770;SDS011;6449;47.666;9.160;2022-07-22T02:53:18;8.05;;;7.25;;
12770;SDS011;6449;47.666;9.160;2022-07-22T02:58:13;9.48;;;7.70;;
12770;SDS011;6449;47.666;9.160;2022-07-22T03:03:07;8.35;;;7.53;;
12770;SDS011;6449;47.666;9.160;2022-07-22T03:08:00;8.23;;;7.45;;
12770;SDS011;6449;47.666;9.160;2022-07-22T03:12:55;9.70;;;7.72;;
12770;SDS011;6449;47.666;9.160;2022-07-22T03:17:51;8.73;;;7.55;;
12770;SDS011;6449;47.666;9.160;2022-07-22T03:22:45;8.68;;;6.80;;
12770;SDS011;6449;47.666;9.160;2022-07-22T03:27:39;7.75;;;7.05;;
12770;SDS011;6449;47.666;9.160;2022-07-22T03:32:33;8.23;;;7.40;;
12770;SDS011;6449;47.666;9.160;2022-07-22T03:37:28;8.02;;;7.22;;
12770;SDS011;6449;47.666;9.160;2022-07-22T03:42:21;8.95;;;6.97;;
12770;SDS011;6449;47.666;9.160;2022-07-22T03:47:17;7.75;;;6.95;;
12770;SDS011;6449;47.666;9.160;2022-07-22T03:52:11;8.55;;;7.13;;
12770;SDS011;6449;47.666;9.160;2022-07-22T03:57:06;9.20;;;6.95;;
12770;SDS011;6449;47.666;9.160;2022-07-22T04:02:00;9.95;;;7.60;;
12770;SDS011;6449;47.666;9.160;2022-07-22T04:06:54;8.07;;;7.22;;
12770;SDS011;6449;47.666;9.160;2022-07-22T04:11:47;7.18;;;6.47;;
12770;SDS011;6449;47.666;9.160;2022-07-22T04:16:43;8.63;;;6.60;;
12770;SDS011;6449;47.666;9.160;2022-07-22T04:21:37;7.80;;;7.05;;
12770;SDS011;6449;47.666;9.160;2022-07-22T04:26:31;7.10;;;6.40;;
12770;SDS011;6449;47.666;9.160;2022-07-22T04:31:24;7.03;;;6.20;;
12770;SDS011;6449;47.666;9.160;2022-07-22T04:36:19;6.82;;;6.13;;
12770;SDS011;6449;47.666;9.160;2022-07-22T04:41:13;9.57;;;7.78;;
12770;SDS011;6449;47.666;9.160;2022-07-22T04:46:11;12.73;;;8.85;;
12770;SDS011;6449;47.666;9.160;2022-07-22T04:51:04;9.85;;;8.80;;
12770;SDS011;6449;47.666;9.160;2022-07-22T04:55:59;7.95;;;7.15;;
12770;SDS011;6449;47.666;9.160;2022-07-22T05:00:52;10.23;;;7.85;;
12770;SDS011;6449;47.666;9.160;2022-07-22T05:05:46;8.18;;;7.13;;
12770;SDS011;6449;47.666;9.160;2022-07-22T05:10:39;7.68;;;6.97;;
12770;SDS011;6449;47.666;9.160;2022-07-22T05:15:34;8.55;;;6.57;;
12770;SDS011;6449;47.666;9.160;2022-07-22T05:20:27;7.45;;;6.70;;
12770;SDS011;6449;47.666;9.160;2022-07-22T05:25:21;7.10;;;6.18;;
12770;SDS011;6449;47.666;9.160;2022-07-22T05:30:14;7.38;;;6.25;;
12770;SDS011;6449;47.666;9.160;2022-07-22T05:35:15;6.25;;;5.53;;
12770;SDS011;6449;47.666;9.160;2022-07-22T05:40:09;7.07;;;6.15;;
12770;SDS011;6449;47.666;9.160;2022-07-22T05:45:04;5.95;;;5.45;;
12770;SDS011;6449;47.666;9.160;2022-07-22T05:49:59;5.75;;;5.25;;
12770;SDS011;6449;47.666;9.160;2022-07-22T05:54:54;5.88;;;5.28;;
12770;SDS011;6449;47.666;9.160;2022-07-22T05:59:47;6.00;;;5.50;;
12770;SDS011;6449;47.666;9.160;2022-07-22T06:04:41;5.75;;;5.15;;
12770;SDS011;6449;47.666;9.160;2022-07-22T06:09:34;6.68;;;6.07;;
12770;SDS011;6449;47.666;9.160;2022-07-22T06:14:29;5.18;;;4.68;;
12770;SDS011;6449;47.666;9.160;2022-07-22T06:19:23;6.25;;;5.63;;
12770;SDS011;6449;47.666;9.160;2022-07-22T06:24:17;5.18;;;4.68;;
12770;SDS011;6449;47.666;9.160;2022-07-22T06:29:16;5.75;;;4.68;;
12770;SDS011;6449;47.666;9.160;2022-07-22T06:34:11;5.82;;;5.25;;
12770;SDS011;6449;47.666;9.160;2022-07-22T06:39:04;5.32;;;4.82;;
12770;SDS011;6449;47.666;9.160;2022-07-22T06:43:58;5.72;;;5.13;;
12770;SDS011;6449;47.666;9.160;2022-07-22T06:48:51;5.45;;;4.95;;
12770;SDS011;6449;47.666;9.160;2022-07-22T06:53:51;5.05;;;4.55;;
12770;SDS011;6449;47.666;9.160;2022-07-22T06:58:44;6.63;;;5.95;;
12770;SDS011;6449;47.666;9.160;2022-07-22T07:03:37;6.20;;;5.60;;
12770;SDS011;6449;47.666;9.160;2022-07-22T07:08:31;5.72;;;5.22;;
12770;SDS011;6449;47.666;9.160;2022-07-22T07:13:25;5.35;;;4.80;;
12770;SDS011;6449;47.666;9.160;2022-07-22T07:18:19;5.70;;;5.20;;
12770;SDS011;6449;47.666;9.160;2022-07-22T07:23:12;6.50;;;5.85;;
12770;SDS011;6449;47.666;9.160;2022-07-22T07:28:07;6.75;;;6.05;;
12770;SDS011;6449;47.666;9.160;2022-07-22T07:33:02;6.80;;;6.13;;
12770;SDS011;6449;47.666;9.160;2022-07-22T07:37:55;7.25;;;6.55;;
12770;SDS011;6449;47.666;9.160;2022-07-22T07:42:49;7.00;;;6.30;;
12770;SDS011;6449;47.666;9.160;2022-07-22T07:47:53;7.53;;;6.65;;
12770;SDS011;6449;47.666;9.160;2022-07-22T07:52:48;8.27;;;6.93;;
12770;SDS011;6449;47.666;9.160;2022-07-22T07:57:43;7.57;;;6.78;;
12770;SDS011;6449;47.666;9.160;2022-07-22T08:02:41;7.35;;;6.65;;
12770;SDS011;6449;47.666;9.160;2022-07-22T08:07:36;8.07;;;7.22;;
12770;SDS011;6449;47.666;9.160;2022-07-22T08:12:32;8.50;;;7.53;;
12770;SDS011;6449;47.666;9.160;2022-07-22T08:17:26;8.57;;;7.68;;
12770;SDS011;6449;47.666;9.160;2022-07-22T08:22:20;8.57;;;7.68;;
12770;SDS011;6449;47.666;9.160;2022-07-22T08:27:13;7.95;;;7.15;;
12770;SDS011;6449;47.666;9.160;2022-07-22T08:32:08;7.30;;;6.63;;
12770;SDS011;6449;47.666;9.160;2022-07-22T08:37:02;7.07;;;6.28;;
12770;SDS011;6449;47.666;9.160;2022-07-22T08:41:56;7.72;;;6.90;;
12770;SDS011;6449;47.666;9.160;2022-07-22T08:46:50;8.65;;;7.70;;
12770;SDS011;6449;47.666;9.160;2022-07-22T08:51:45;7.63;;;6.93;;
12770;SDS011;6449;47.666;9.160;2022-07-22T08:56:38;6.95;;;6.20;;
12770;SDS011;6449;47.666;9.160;2022-07-22T09:01:33;8.80;;;7.00;;
12770;SDS011;6449;47.666;9.160;2022-07-22T09:06:27;7.55;;;6.72;;
12770;SDS011;6449;47.666;9.160;2022-07-22T09:11:26;7.70;;;6.90;;
12770;SDS011;6449;47.666;9.160;2022-07-22T09:16:38;7.05;;;6.32;;
12770;SDS011;6449;47.666;9.160;2022-07-22T09:21:35;6.88;;;6.28;;
12770;SDS011;6449;47.666;9.160;2022-07-22T09:26:33;6.90;;;6.25;;
12770;SDS011;6449;47.666;9.160;2022-07-22T09:31:30;6.60;;;6.00;;
12770;SDS011;6449;47.666;9.160;2022-07-22T09:36:27;8.60;;;7.60;;
12770;SDS011;6449;47.666;9.160;2022-07-22T09:41:21;6.47;;;5.88;;
12770;SDS011;6449;47.666;9.160;2022-07-22T09:46:17;6.45;;;5.85;;
12770;SDS011;6449;47.666;9.160;2022-07-22T09:51:28;6.75;;;6.10;;
12770;SDS011;6449;47.666;9.160;2022-07-22T09:56:23;6.95;;;6.28;;
12770;SDS011;6449;47.666;9.160;2022-07-22T10:01:19;6.57;;;5.97;;
12770;SDS011;6449;47.666;9.160;2022-07-22T10:06:13;7.40;;;6.25;;
12770;SDS011;6449;47.666;9.160;2022-07-22T10:11:07;6.32;;;5.82;;
12770;SDS011;6449;47.666;9.160;2022-07-22T10:16:01;6.18;;;5.68;;
12770;SDS011;6449;47.666;9.160;2022-07-22T10:21:04;5.80;;;5.30;;
12770;SDS011;6449;47.666;9.160;2022-07-22T10:26:00;6.70;;;6.00;;
12770;SDS011;6449;47.666;9.160;2022-07-22T10:36:16;6.82;;;6.22;;
12770;SDS011;6449;47.666;9.160;2022-07-22T10:41:30;6.20;;;5.65;;
12770;SDS011;6449;47.666;9.160;2022-07-22T10:46:41;6.93;;;6.18;;
12770;SDS011;6449;47.666;9.160;2022-07-22T10:57:11;5.88;;;5.38;;
12770;SDS011;6449;47.666;9.160;2022-07-22T11:02:28;6.05;;;5.45;;
12770;SDS011;6449;47.666;9.160;2022-07-22T11:07:23;6.68;;;5.97;;
12770;SDS011;6449;47.666;9.160;2022-07-22T11:12:19;5.95;;;5.45;;
12770;SDS011;6449;47.666;9.160;2022-07-22T11:17:12;5.68;;;5.18;;
12770;SDS011;6449;47.666;9.160;2022-07-22T11:22:06;6.43;;;5.82;;
12770;SDS011;6449;47.666;9.160;2022-07-22T11:27:07;6.53;;;5.50;;
12770;SDS011;6449;47.666;9.160;2022-07-22T11:32:07;5.70;;;5.20;;
12770;SDS011;6449;47.666;9.160;2022-07-22T11:37:03;5.60;;;5.10;;
12770;SDS011;6449;47.666;9.160;2022-07-22T11:41:57;6.32;;;5.72;;
12770;SDS011;6449;47.666;9.160;2022-07-22T11:46:53;6.20;;;5.70;;
12770;SDS011;6449;47.666;9.160;2022-07-22T11:51:50;5.78;;;5.28;;
12770;SDS011;6449;47.666;9.160;2022-07-22T11:56:44;6.00;;;5.50;;
12770;SDS011;6449;47.666;9.160;2022-07-22T12:01:37;5.90;;;5.38;;
12770;SDS011;6449;47.666;9.160;2022-07-22T12:06:34;6.13;;;5.53;;
12770;SDS011;6449;47.666;9.160;2022-07-22T12:11:30;6.07;;;5.50;;
12770;SDS011;6449;47.666;9.160;2022-07-22T12:16:26;5.75;;;5.25;;
12770;SDS011;6449;47.666;9.160;2022-07-22T12:21:22;6.10;;;5.50;;
12770;SDS011;6449;47.666;9.160;2022-07-22T12:26:29;6.13;;;5.60;;
12770;SDS011;6449;47.666;9.160;2022-07-22T12:31:40;6.03;;;5.53;;
12770;SDS011;6449;47.666;9.160;2022-07-22T12:36:35;7.40;;;6.07;;
12770;SDS011;6449;47.666;9.160;2022-07-22T12:41:30;5.78;;;5.28;;
12770;SDS011;6449;47.666;9.160;2022-07-22T12:46:23;6.38;;;5.78;;
12770;SDS011;6449;47.666;9.160;2022-07-22T12:51:17;6.43;;;5.65;;
12770;SDS011;6449;47.666;9.160;2022-07-22T12:56:10;6.35;;;5.40;;
12770;SDS011;6449;47.666;9.160;2022-07-22T13:01:06;6.15;;;5.20;;
12770;SDS011;6449;47.666;9.160;2022-07-22T13:06:02;7.53;;;5.80;;
12770;SDS011;6449;47.666;9.160;2022-07-22T13:10:59;5.78;;;5.28;;
12770;SDS011;6449;47.666;9.160;2022-07-22T13:15:52;5.72;;;5.22;;
12770;SDS011;6449;47.666;9.160;2022-07-22T13:20:49;5.63;;;5.22;;
12770;SDS011;6449;47.666;9.160;2022-07-22T13:25:43;5.50;;;5.00;;
12770;SDS011;6449;47.666;9.160;2022-07-22T13:30:36;5.78;;;5.18;;
12770;SDS011;6449;47.666;9.160;2022-07-22T13:35:30;5.53;;;5.10;;
12770;SDS011;6449;47.666;9.160;2022-07-22T13:40:25;5.78;;;5.28;;
12770;SDS011;6449;47.666;9.160;2022-07-22T13:45:19;5.90;;;5.30;;
12770;SDS011;6449;47.666;9.160;2022-07-22T13:50:13;5.60;;;5.10;;
12770;SDS011;6449;47.666;9.160;2022-07-22T13:55:07;5.72;;;5.20;;
12770;SDS011;6449;47.666;9.160;2022-07-22T14:00:03;6.00;;;5.43;;
12770;SDS011;6449;47.666;9.160;2022-07-22T14:05:05;5.43;;;4.93;;
12770;SDS011;6449;47.666;9.160;2022-07-22T14:09:59;8.57;;;5.30;;
12770;SDS011;6449;47.666;9.160;2022-07-22T14:14:53;5.20;;;4.53;;
12770;SDS011;6449;47.666;9.160;2022-07-22T14:19:48;6.00;;;5.40;;
12770;SDS011;6449;47.666;9.160;2022-07-22T14:24:48;5.20;;;4.80;;
12770;SDS011;6449;47.666;9.160;2022-07-22T14:29:42;6.32;;;5.72;;
12770;SDS011;6449;47.666;9.160;2022-07-22T14:34:35;5.70;;;5.22;;
12770;SDS011;6449;47.666;9.160;2022-07-22T14:39:30;5.32;;;4.93;;
12770;SDS011;6449;47.666;9.160;2022-07-22T14:44:23;5.20;;;4.55;;
12770;SDS011;6449;47.666;9.160;2022-07-22T14:49:17;5.28;;;4.78;;
12770;SDS011;6449;47.666;9.160;2022-07-22T14:54:11;5.07;;;4.63;;
12770;SDS011;6449;47.666;9.160;2022-07-22T14:59:06;5.65;;;5.15;;
12770;SDS011;6449;47.666;9.160;2022-07-22T15:03:59;6.05;;;4.90;;
12770;SDS011;6449;47.666;9.160;2022-07-22T15:08:53;6.00;;;5.50;;
12770;SDS011;6449;47.666;9.160;2022-07-22T15:13:47;5.28;;;4.88;;
12770;SDS011;6449;47.666;9.160;2022-07-22T15:18:42;5.47;;;4.90;;
12770;SDS011;6449;47.666;9.160;2022-07-22T15:23:35;5.55;;;5.05;;
12770;SDS011;6449;47.666;9.160;2022-07-22T15:28:29;5.80;;;5.20;;
12770;SDS011;6449;47.666;9.160;2022-07-22T15:33:24;6.00;;;5.47;;
12770;SDS011;6449;47.666;9.160;2022-07-22T15:38:28;4.55;;;4.15;;
12770;SDS011;6449;47.666;9.160;2022-07-22T15:43:21;6.40;;;5.40;;
12770;SDS011;6449;47.666;9.160;2022-07-22T15:48:15;5.68;;;5.18;;
12770;SDS011;6449;47.666;9.160;2022-07-22T15:53:09;5.47;;;4.97;;
12770;SDS011;6449;47.666;9.160;2022-07-22T15:58:04;5.47;;;4.80;;
12770;SDS011;6449;47.666;9.160;2022-07-22T16:03:15;5.70;;;5.20;;
12770;SDS011;6449;47.666;9.160;2022-07-22T16:08:15;5.60;;;5.10;;
12770;SDS011;6449;47.666;9.160;2022-07-22T16:13:10;5.85;;;5.25;;
12770;SDS011;6449;47.666;9.160;2022-07-22T16:18:03;5.57;;;5.07;;
12770;SDS011;6449;47.666;9.160;2022-07-22T16:22:57;5.68;;;5.18;;
12770;SDS011;6449;47.666;9.160;2022-07-22T16:27:50;5.55;;;5.07;;
12770;SDS011;6449;47.666;9.160;2022-07-22T16:32:45;6.13;;;5.40;;
12770;SDS011;6449;47.666;9.160;2022-07-22T16:37:46;5.20;;;4.70;;
12770;SDS011;6449;47.666;9.160;2022-07-22T16:42:39;5.65;;;5.13;;
12770;SDS011;6449;47.666;9.160;2022-07-22T16:47:33;5.38;;;4.88;;
12770;SDS011;6449;47.666;9.160;2022-07-22T16:52:28;5.32;;;4.65;;
12770;SDS011;6449;47.666;9.160;2022-07-22T16:57:21;5.60;;;4.90;;
12770;SDS011;6449;47.666;9.160;2022-07-22T17:02:18;5.45;;;4.72;;
12770;SDS011;6449;47.666;9.160;2022-07-22T17:07:11;5.10;;;4.60;;
12770;SDS011;6449;47.666;9.160;2022-07-22T17:12:06;4.95;;;4.55;;
12770;SDS011;6449;47.666;9.160;2022-07-22T17:17:01;5.05;;;4.65;;
12770;SDS011;6449;47.666;9.160;2022-07-22T17:21:54;5.45;;;4.95;;
12770;SDS011;6449;47.666;9.160;2022-07-22T17:26:48;4.57;;;4.20;;
12770;SDS011;6449;47.666;9.160;2022-07-22T17:31:43;5.18;;;4.55;;
12770;SDS011;6449;47.666;9.160;2022-07-22T17:36:36;6.50;;;5.03;;
12770;SDS011;6449;47.666;9.160;2022-07-22T17:41:30;5.47;;;4.90;;
12770;SDS011;6449;47.666;9.160;2022-07-22T17:51:50;5.55;;;5.05;;
12770;SDS011;6449;47.666;9.160;2022-07-22T17:56:47;5.63;;;5.13;;
12770;SDS011;6449;47.666;9.160;2022-07-22T18:01:41;5.60;;;5.10;;
12770;SDS011;6449;47.666;9.160;2022-07-22T18:26:36;5.40;;;4.90;;
12770;SDS011;6449;47.666;9.160;2022-07-22T18:31:31;6.45;;;5.75;;
12770;SDS011;6449;47.666;9.160;2022-07-22T18:36:24;6.53;;;5.57;;
12770;SDS011;6449;47.666;9.160;2022-07-22T18:41:18;6.55;;;5.95;;
12770;SDS011;6449;47.666;9.160;2022-07-22T18:46:13;6.22;;;5.63;;
12770;SDS011;6449;47.666;9.160;2022-07-22T18:51:09;6.28;;;5.68;;
12770;SDS011;6449;47.666;9.160;2022-07-22T18:56:03;7.78;;;6.15;;
12770;SDS011;6449;47.666;9.160;2022-07-22T19:00:58;6.90;;;6.20;;
12770;SDS011;6449;47.666;9.160;2022-07-22T19:05:53;15.30;;;12.40;;
12770;SDS011;6449;47.666;9.160;2022-07-22T19:10:46;7.78;;;6.60;;
12770;SDS011;6449;47.666;9.160;2022-07-22T19:15:41;7.22;;;6.22;;
12770;SDS011;6449;47.666;9.160;2022-07-22T19:20:35;7.00;;;6.40;;
12770;SDS011;6449;47.666;9.160;2022-07-22T19:25:31;7.40;;;6.70;;
12770;SDS011;6449;47.666;9.160;2022-07-22T19:30:24;7.93;;;6.85;;
12770;SDS011;6449;47.666;9.160;2022-07-22T19:35:20;8.73;;;7.32;;
12770;SDS011;6449;47.666;9.160;2022-07-22T19:45:56;7.15;;;6.45;;
12770;SDS011;6449;47.666;9.160;2022-07-22T19:51:01;6.25;;;5.70;;
12770;SDS011;6449;47.666;9.160;2022-07-22T19:56:08;8.48;;;7.55;;
12770;SDS011;6449;47.666;9.160;2022-07-22T20:01:04;8.45;;;7.68;;
12770;SDS011;6449;47.666;9.160;2022-07-22T20:05:58;10.50;;;9.50;;
12770;SDS011;6449;47.666;9.160;2022-07-22T20:10:52;8.00;;;6.97;;
12770;SDS011;6449;47.666;9.160;2022-07-22T20:15:47;7.88;;;6.03;;
12770;SDS011;6449;47.666;9.160;2022-07-22T20:20:44;6.50;;;5.90;;
12770;SDS011;6449;47.666;9.160;2022-07-22T20:25:38;8.20;;;6.15;;
12770;SDS011;6449;47.666;9.160;2022-07-22T20:30:48;6.22;;;5.63;;
12770;SDS011;6449;47.666;9.160;2022-07-22T20:36:03;6.60;;;6.00;;
12770;SDS011;6449;47.666;9.160;2022-07-22T20:40:58;7.25;;;6.55;;
12770;SDS011;6449;47.666;9.160;2022-07-22T20:45:57;7.15;;;6.45;;
12770;SDS011;6449;47.666;9.160;2022-07-22T20:52:11;7.00;;;6.30;;
12770;SDS011;6449;47.666;9.160;2022-07-22T20:57:05;6.88;;;6.18;;
12770;SDS011;6449;47.666;9.160;2022-07-22T21:02:00;6.10;;;5.50;;
12770;SDS011;6449;47.666;9.160;2022-07-22T21:07:03;6.43;;;5.82;;
12770;SDS011;6449;47.666;9.160;2022-07-22T21:11:57;5.72;;;5.22;;
12770;SDS011;6449;47.666;9.160;2022-07-22T21:16:51;6.95;;;5.82;;
12770;SDS011;6449;47.666;9.160;2022-07-22T21:21:44;6.85;;;5.40;;
12770;SDS011;6449;47.666;9.160;2022-07-22T21:26:38;6.30;;;5.63;;
12770;SDS011;6449;47.666;9.160;2022-07-22T21:31:33;5.63;;;5.13;;
12770;SDS011;6449;47.666;9.160;2022-07-22T21:36:26;5.60;;;5.10;;
12770;SDS011;6449;47.666;9.160;2022-07-22T21:41:20;8.95;;;6.90;;
12770;SDS011;6449;47.666;9.160;2022-07-22T21:46:13;13.65;;;10.73;;
12770;SDS011;6449;47.666;9.160;2022-07-22T21:51:09;12.90;;;11.10;;
12770;SDS011;6449;47.666;9.160;2022-07-22T21:56:03;8.85;;;7.95;;
12770;SDS011;6449;47.666;9.160;2022-07-22T22:01:14;8.00;;;7.20;;
12770;SDS011;6449;47.666;9.160;2022-07-22T22:06:09;6.15;;;5.55;;
12770;SDS011;6449;47.666;9.160;2022-07-22T22:11:03;6.85;;;5.22;;
12770;SDS011;6449;47.666;9.160;2022-07-22T22:15:56;5.10;;;4.70;;
12770;SDS011;6449;47.666;9.160;2022-07-22T22:20:50;6.05;;;4.80;;
12770;SDS011;6449;47.666;9.160;2022-07-22T22:25:45;5.30;;;4.82;;
12770;SDS011;6449;47.666;9.160;2022-07-22T22:36:41;6.18;;;5.57;;
12770;SDS011;6449;47.666;9.160;2022-07-22T22:41:36;6.32;;;5.72;;
12770;SDS011;6449;47.666;9.160;2022-07-22T22:46:29;5.68;;;5.18;;
12770;SDS011;6449;47.666;9.160;2022-07-22T22:51:23;7.60;;;6.32;;
12770;SDS011;6449;47.666;9.160;2022-07-22T22:56:17;7.85;;;6.22;;
12770;SDS011;6449;47.666;9.160;2022-07-22T23:01:12;5.95;;;5.35;;
12770;SDS011;6449;47.666;9.160;2022-07-22T23:06:06;7.05;;;6.35;;
12770;SDS011;6449;47.666;9.160;2022-07-22T23:11:00;8.52;;;7.15;;
12770;SDS011;6449;47.666;9.160;2022-07-22T23:31:27;9.48;;;7.20;;
12770;SDS011;6449;47.666;9.160;2022-07-22T23:36:20;8.75;;;7.40;;
12770;SDS011;6449;47.666;9.160;2022-07-22T23:41:15;8.02;;;7.22;;
12770;SDS011;6449;47.666;9.160;2022-07-22T23:46:09;8.55;;;7.40;;
12770;SDS011;6449;47.666;9.160;2022-07-22T23:51:04;8.50;;;7.38;;
12770;SDS011;6449;47.666;9.160;2022-07-22T23:55:58;7.72;;;6.97;;
